Terminal Aerodrome Forecast
Issued by NWS

Home | Current Version | Previous Version | Text Only | Print | Product List | Glossary Off
Versions: 1 2 3 4 5 6 7 8 9 10 11 12 13

155
FTUS43 KSGF 131120
TAFJLN
TAF
KJLN 131120Z 1312/1412 06008KT P6SM OVC100
     FM131600 10008KT P6SM OVC100
     FM140200 14012KT P6SM OVC100
     FM140600 15012G20KT P6SM OVC050=

USA.gov is the U.S. government's official web portal to all federal, state and local government web resources and services.